createdAt,value
2019-01-12T00:01:16.591Z,101461.95
2019-01-12T00:04:20.482Z,101461.95
2019-01-12T00:07:24.358Z,101463.69
2019-01-12T00:10:28.242Z,101461.94
2019-01-12T00:13:32.036Z,101452.73
2019-01-12T00:16:35.856Z,101450.09
2019-01-12T00:19:39.662Z,101450.96
2019-01-12T00:22:43.574Z,101453.59
2019-01-12T00:25:47.478Z,101458.01
2019-01-12T00:28:51.288Z,101444.81
2019-01-12T00:31:55.135Z,101445.25
2019-01-12T00:34:58.917Z,101445.68
2019-01-12T00:38:02.796Z,101449.66
2019-01-12T00:41:06.604Z,101445.23
2019-01-12T00:44:10.507Z,101442.19
2019-01-12T00:47:14.388Z,101440.84
2019-01-12T00:50:19.143Z,101439.97
2019-01-12T00:53:23.028Z,101432.94
2019-01-12T00:56:26.933Z,101439.53
2019-01-12T00:59:30.829Z,101436.45
2019-01-12T01:02:34.719Z,101428.97
2019-01-12T01:05:38.593Z,101422.38
2019-01-12T01:08:42.539Z,101418.44
2019-01-12T01:11:46.428Z,101419.74
2019-01-12T01:14:50.298Z,101418.88
2019-01-12T01:17:54.205Z,101427.66
2019-01-12T01:20:58.019Z,101428.09
2019-01-12T01:24:01.904Z,101420.20
2019-01-12T01:27:05.840Z,101422.40
2019-01-12T01:30:15.966Z,101426.80
2019-01-12T01:33:19.839Z,101421.52
2019-01-12T01:36:23.798Z,101423.70
2019-01-12T01:39:27.648Z,101412.71
2019-01-12T01:42:31.536Z,101424.14
2019-01-12T01:45:35.331Z,101415.35
2019-01-12T01:48:39.160Z,101423.23
2019-01-12T01:51:43.151Z,101411.83
2019-01-12T01:54:52.792Z,101415.36
2019-01-12T01:57:52.772Z,101406.55
2019-01-12T02:00:56.660Z,101399.95
2019-01-12T02:04:00.581Z,101406.98
2019-01-12T02:07:04.618Z,101393.36
2019-01-12T02:10:12.716Z,101393.33
2019-01-12T02:13:16.674Z,101397.31
2019-01-12T02:16:20.635Z,101391.16
2019-01-12T02:19:24.533Z,101380.16
2019-01-12T02:22:28.429Z,101381.94
2019-01-12T02:25:32.306Z,101381.90
2019-01-12T02:28:36.295Z,101373.11
2019-01-12T02:31:40.173Z,101362.56
2019-01-12T02:34:44.088Z,101360.38
2019-01-12T02:37:47.891Z,101359.92
2019-01-12T02:40:51.814Z,101345.87
2019-01-12T02:43:55.691Z,101344.10
2019-01-12T02:46:59.661Z,101346.31
2019-01-12T02:50:04.327Z,101342.36
2019-01-12T02:53:08.291Z,101344.11
2019-01-12T02:56:12.157Z,101333.55
2019-01-12T02:59:15.957Z,101331.34
2019-01-12T03:02:19.904Z,101324.78
2019-01-12T03:05:23.780Z,101319.07
2019-01-12T03:08:27.695Z,101317.74
2019-01-12T03:11:31.494Z,101313.76
2019-01-12T03:14:35.375Z,101311.55
2019-01-12T03:17:39.331Z,101306.73
2019-01-12T03:20:43.231Z,101306.31
2019-01-12T03:23:47.120Z,101310.23
2019-01-12T03:26:51.029Z,101301.00
2019-01-12T03:29:54.909Z,101296.61
2019-01-12T03:32:58.806Z,101289.56
2019-01-12T03:36:02.688Z,101284.30
2019-01-12T03:39:08.890Z,101279.37
2019-01-12T03:42:12.884Z,101273.66
2019-01-12T03:45:17.739Z,101267.55
2019-01-12T03:48:21.628Z,101273.70
2019-01-12T03:51:25.495Z,101256.59
2019-01-12T03:54:29.396Z,101267.08
2019-01-12T03:57:33.351Z,101260.48
2019-01-12T04:00:37.223Z,101258.32
2019-01-12T04:03:41.138Z,101258.32
2019-01-12T04:06:44.932Z,101257.42
2019-01-12T04:09:49.039Z,101249.89
2019-01-12T04:12:53.213Z,101248.61
2019-01-12T04:15:57.097Z,101238.49
2019-01-12T04:19:00.964Z,101248.61
2019-01-12T04:22:04.951Z,101241.13
2019-01-12T04:25:09.274Z,101232.41
2019-01-12T04:28:13.136Z,101242.94
2019-01-12T04:31:17.116Z,101236.33
2019-01-12T04:34:21.373Z,101244.65
2019-01-12T04:37:25.334Z,101234.13
2019-01-12T04:40:29.219Z,101234.55
2019-01-12T04:43:33.118Z,101235.46
2019-01-12T04:46:36.976Z,101233.67
2019-01-12T04:49:40.849Z,101226.69
2019-01-12T04:52:44.642Z,101225.37
2019-01-12T04:55:48.589Z,101202.05
2019-01-12T04:58:52.463Z,101197.70
2019-01-12T05:01:56.426Z,101202.55
2019-01-12T05:05:00.373Z,101191.95
2019-01-12T05:08:04.273Z,101185.80
2019-01-12T05:11:08.126Z,101185.75
2019-01-12T05:14:13.446Z,101189.30
2019-01-12T05:17:17.317Z,101184.86
2019-01-12T05:20:22.022Z,101178.69
2019-01-12T05:23:25.906Z,101176.05
2019-01-12T05:26:29.766Z,101182.20
2019-01-12T05:29:33.574Z,101175.14
2019-01-12T05:32:37.444Z,101174.72
2019-01-12T05:35:41.341Z,101169.89
2019-01-12T05:38:45.227Z,101165.48
2019-01-12T05:41:49.105Z,101165.45
2019-01-12T05:44:52.992Z,101158.86
2019-01-12T05:47:56.867Z,101155.84
2019-01-12T05:51:00.735Z,101145.23
2019-01-12T05:54:04.779Z,101141.70
2019-01-12T05:57:08.739Z,101147.50
2019-01-12T06:00:21.698Z,101128.59
2019-01-12T06:03:25.625Z,101126.76
2019-01-12T06:06:29.511Z,101132.06
2019-01-12T06:09:33.368Z,101127.73
2019-01-12T06:12:37.295Z,101120.16
2019-01-12T06:15:41.222Z,101118.91
2019-01-12T06:18:45.112Z,101121.11
2019-01-12T06:21:49.006Z,101123.32
2019-01-12T06:24:52.947Z,101112.33
2019-01-12T06:27:56.817Z,101118.55
2019-01-12T06:31:00.763Z,101116.38
2019-01-12T06:34:04.739Z,101112.42
2019-01-12T06:37:08.663Z,101101.01
2019-01-12T06:40:17.549Z,101108.89
2019-01-12T06:43:21.391Z,101090.02
2019-01-12T06:46:25.285Z,101087.84
2019-01-12T06:49:29.159Z,101081.34
2019-01-12T06:52:33.043Z,101081.70
2019-01-12T06:55:36.895Z,101065.89
2019-01-12T06:58:40.763Z,101062.02
2019-01-12T07:01:44.657Z,101058.41
2019-01-12T07:04:48.530Z,101055.37
2019-01-12T07:07:52.628Z,101059.38
2019-01-12T07:10:56.498Z,101059.31
2019-01-12T07:14:00.606Z,101065.00
2019-01-12T07:17:05.057Z,101057.97
2019-01-12T07:20:14.466Z,101052.73
2019-01-12T07:23:18.735Z,101057.11
2019-01-12T07:26:23.033Z,101050.13
2019-01-12T07:29:26.902Z,101035.55
2019-01-12T07:32:30.798Z,101039.45
2019-01-12T07:35:34.687Z,101029.83
2019-01-12T07:38:38.552Z,101018.84
2019-01-12T07:41:42.432Z,101019.24
2019-01-12T07:44:46.321Z,101010.01
2019-01-12T07:47:50.209Z,101017.89
2019-01-12T07:50:54.071Z,101025.44
2019-01-12T07:53:57.950Z,101018.88
2019-01-12T07:57:02.042Z,101018.88
2019-01-12T08:00:09.695Z,101021.45
2019-01-12T08:03:13.659Z,101005.33
2019-01-12T08:06:17.739Z,101004.00
2019-01-12T08:09:21.704Z,101003.02
2019-01-12T08:12:25.735Z,101000.05
2019-01-12T08:15:29.788Z,100995.61
2019-01-12T08:18:34.839Z,100996.00
2019-01-12T08:21:38.834Z,100984.59
2019-01-12T08:24:42.774Z,100981.46
2019-01-12T08:27:46.659Z,100973.22
2019-01-12T08:30:50.518Z,100960.62
2019-01-12T08:33:54.613Z,100951.27
2019-01-12T08:36:58.498Z,100939.94
2019-01-12T08:40:02.506Z,100934.33
2019-01-12T08:43:06.494Z,100928.56
2019-01-12T08:46:10.368Z,100920.66
2019-01-12T08:49:14.363Z,100915.02
2019-01-12T08:52:18.458Z,100890.11
2019-01-12T08:55:22.400Z,100880.50
2019-01-12T08:58:26.412Z,100872.20
2019-01-12T09:01:30.764Z,100875.55
2019-01-12T09:04:34.691Z,100857.27
2019-01-12T09:07:38.595Z,100844.53
2019-01-12T09:10:42.482Z,100843.54
2019-01-12T09:13:46.354Z,100841.30
2019-01-12T09:16:50.687Z,100820.72
2019-01-12T09:19:55.759Z,100807.93
2019-01-12T09:23:00.792Z,100808.28
2019-01-12T09:26:05.273Z,100800.34
2019-01-12T09:29:09.266Z,100786.38
2019-01-12T09:32:13.547Z,100791.11
2019-01-12T09:35:18.032Z,100782.70
2019-01-12T09:38:22.532Z,100762.84
2019-01-12T09:41:26.812Z,100760.25
2019-01-12T09:44:30.902Z,100751.87
2019-01-12T09:47:34.869Z,100752.11
2019-01-12T09:50:39.881Z,100728.43
2019-01-12T09:53:44.148Z,100728.89
2019-01-12T09:56:51.758Z,100726.27
2019-01-12T09:59:53.574Z,100728.33
2019-01-12T10:02:57.722Z,100705.34
2019-01-12T10:06:01.830Z,100702.11
2019-01-12T10:09:08.451Z,100697.48
2019-01-12T10:12:12.752Z,100711.94
2019-01-12T10:15:17.221Z,100682.13
2019-01-12T10:18:21.311Z,100677.13
2019-01-12T10:21:25.100Z,100672.69
2019-01-12T10:24:29.094Z,100665.20
2019-01-12T10:27:33.072Z,100652.39
2019-01-12T10:30:37.345Z,100640.39
2019-01-12T10:33:41.785Z,100628.94
2019-01-12T10:36:45.745Z,100620.06
2019-01-12T10:39:50.437Z,100601.59
2019-01-12T10:42:54.966Z,100593.73
2019-01-12T10:46:00.404Z,100595.82
2019-01-12T10:49:04.873Z,100578.32
2019-01-12T10:52:08.801Z,100560.28
2019-01-12T10:55:13.261Z,100554.11
2019-01-12T10:58:17.366Z,100548.47
2019-01-12T11:01:21.257Z,100543.55
2019-01-12T11:04:25.586Z,100526.47
2019-01-12T11:07:29.472Z,100525.92
2019-01-12T11:10:33.381Z,100510.06
2019-01-12T11:13:37.358Z,100503.77
2019-01-12T11:16:41.713Z,100503.22
2019-01-12T11:19:45.652Z,100493.96
2019-01-12T11:22:50.141Z,100485.41
2019-01-12T11:25:54.193Z,100478.91
2019-01-12T11:28:59.430Z,100473.77
2019-01-12T11:32:04.080Z,100459.86
2019-01-12T11:35:09.488Z,100471.60
2019-01-12T11:38:13.787Z,100450.03
2019-01-12T11:41:17.676Z,100453.42
2019-01-12T11:44:21.604Z,100460.13
2019-01-12T11:47:25.382Z,100455.34
2019-01-12T11:50:29.287Z,100451.23
2019-01-12T11:53:33.163Z,100448.18
2019-01-12T11:56:37.069Z,100447.26
2019-01-12T11:59:41.302Z,100445.52
2019-01-12T12:02:45.290Z,100434.63
2019-01-12T12:05:49.150Z,100424.41
2019-01-12T12:08:53.120Z,100425.31
2019-01-12T12:11:57.009Z,100425.15
2019-01-12T12:15:00.912Z,100414.98
2019-01-12T12:18:04.854Z,100418.23
2019-01-12T12:21:08.744Z,100407.81
2019-01-12T12:24:12.665Z,100409.20
2019-01-12T12:27:16.657Z,100403.92
2019-01-12T12:30:26.273Z,100396.68
2019-01-12T12:33:30.160Z,100394.28
2019-01-12T12:36:34.046Z,100396.92
2019-01-12T12:39:38.043Z,100388.15
2019-01-12T12:42:41.983Z,100392.56
2019-01-12T12:45:46.058Z,100389.00
2019-01-12T12:48:49.932Z,100381.88
2019-01-12T12:51:53.844Z,100369.21
2019-01-12T12:54:57.714Z,100364.42
2019-01-12T12:58:01.769Z,100366.41
2019-01-12T13:01:05.733Z,100368.12
2019-01-12T13:04:09.622Z,100359.70
2019-01-12T13:07:13.705Z,100363.47
2019-01-12T13:10:20.097Z,100365.20
2019-01-12T13:13:24.100Z,100352.95
2019-01-12T13:16:28.002Z,100356.65
2019-01-12T13:19:32.222Z,100344.94
2019-01-12T13:22:36.235Z,100353.93
2019-01-12T13:25:40.211Z,100346.66
2019-01-12T13:28:44.429Z,100343.05
2019-01-12T13:31:48.306Z,100344.26
2019-01-12T13:34:52.220Z,100340.22
2019-01-12T13:37:56.340Z,100331.50
2019-01-12T13:41:00.250Z,100323.50
2019-01-12T13:44:04.230Z,100324.28
2019-01-12T13:47:08.592Z,100316.36
2019-01-12T13:50:14.084Z,100322.08
2019-01-12T13:53:17.969Z,100315.48
2019-01-12T13:56:21.918Z,100316.54
2019-01-12T13:59:25.798Z,100304.94
2019-01-12T14:02:29.778Z,100300.62
2019-01-12T14:05:33.956Z,100300.15
2019-01-12T14:08:38.861Z,100304.94
2019-01-12T14:11:43.007Z,100298.09
2019-01-12T14:14:46.882Z,100305.17
2019-01-12T14:17:50.873Z,100287.53
2019-01-12T14:20:54.860Z,100291.40
2019-01-12T14:23:58.859Z,100298.47
2019-01-12T14:27:02.854Z,100275.14
2019-01-12T14:30:15.325Z,100285.37
2019-01-12T14:33:15.476Z,100289.25
2019-01-12T14:36:19.868Z,100280.34
2019-01-12T14:39:24.165Z,100266.30
2019-01-12T14:42:28.425Z,100251.54
2019-01-12T14:45:33.943Z,100281.64
2019-01-12T14:48:37.841Z,100295.84
2019-01-12T14:51:41.900Z,100284.72
2019-01-12T14:54:45.779Z,100265.26
2019-01-12T14:57:49.652Z,100261.88
2019-01-12T15:00:53.757Z,100263.45
2019-01-12T15:03:57.848Z,100251.64
2019-01-12T15:07:01.762Z,100249.44
2019-01-12T15:10:07.138Z,100252.77
2019-01-12T15:13:11.218Z,100243.66
2019-01-12T15:16:15.514Z,100255.61
2019-01-12T15:19:19.843Z,100244.10
2019-01-12T15:22:23.721Z,100231.13
2019-01-12T15:25:27.804Z,100234.16
2019-01-12T15:28:31.900Z,100227.20
2019-01-12T15:31:36.369Z,100230.98
2019-01-12T15:34:40.787Z,100219.59
2019-01-12T15:37:45.204Z,100218.69
2019-01-12T15:40:49.258Z,100215.52
2019-01-12T15:43:53.753Z,100217.78
2019-01-12T15:46:59.106Z,100202.03
2019-01-12T15:50:03.098Z,100196.16
2019-01-12T15:53:07.491Z,100197.45
2019-01-12T15:56:11.454Z,100196.05
2019-01-12T15:59:15.432Z,100188.22
2019-01-12T16:02:19.519Z,100194.11
2019-01-12T16:05:23.921Z,100200.55
2019-01-12T16:08:27.794Z,100201.45
2019-01-12T16:11:31.871Z,100201.93
2019-01-12T16:14:35.983Z,100200.38
2019-01-12T16:17:40.897Z,100194.68
2019-01-12T16:20:45.306Z,100180.69
2019-01-12T16:23:49.394Z,100186.43
2019-01-12T16:26:53.373Z,100180.27
2019-01-12T16:29:57.666Z,100186.55
2019-01-12T16:33:01.528Z,100187.30
2019-01-12T16:36:05.740Z,100201.55
2019-01-12T16:39:09.852Z,100195.27
2019-01-12T16:42:14.137Z,100192.58
2019-01-12T16:45:18.317Z,100180.42
2019-01-12T16:48:22.663Z,100175.98
2019-01-12T16:51:26.953Z,100172.87
2019-01-12T16:54:30.986Z,100165.94
2019-01-12T16:57:34.886Z,100172.45
2019-01-12T17:00:38.761Z,100181.20
2019-01-12T17:03:42.683Z,100188.60
2019-01-12T17:06:46.657Z,100178.12
2019-01-12T17:09:50.655Z,100175.02
2019-01-12T17:12:54.547Z,100175.70
2019-01-12T17:15:58.449Z,100159.42
2019-01-12T17:19:02.315Z,100157.97
2019-01-12T17:22:06.209Z,100167.05
2019-01-12T17:25:10.159Z,100176.57
2019-01-12T17:28:14.047Z,100158.48
2019-01-12T17:31:18.329Z,100165.58
2019-01-12T17:34:22.141Z,100164.18
2019-01-12T17:37:26.111Z,100168.61
2019-01-12T17:40:29.972Z,100169.13
2019-01-12T17:43:33.864Z,100164.75
2019-01-12T17:46:37.651Z,100158.08
2019-01-12T17:49:41.549Z,100169.28
2019-01-12T17:52:45.606Z,100166.09
2019-01-12T17:55:49.536Z,100177.95
2019-01-12T17:58:53.533Z,100170.83
2019-01-12T18:01:57.500Z,100180.17
2019-01-12T18:05:01.380Z,100176.29
2019-01-12T18:08:05.466Z,100176.88
2019-01-12T18:11:09.407Z,100182.59
2019-01-12T18:14:14.873Z,100180.86
2019-01-12T18:17:18.977Z,100186.13
2019-01-12T18:20:22.957Z,100198.84
2019-01-12T18:23:26.905Z,100191.15
2019-01-12T18:26:30.892Z,100175.52
2019-01-12T18:29:34.712Z,100172.53
2019-01-12T18:32:38.599Z,100162.98
2019-01-12T18:35:42.638Z,100162.06
2019-01-12T18:38:46.529Z,100165.30
2019-01-12T18:41:50.416Z,100170.14
2019-01-12T18:44:54.298Z,100161.76
2019-01-12T18:47:58.252Z,100168.52
2019-01-12T18:51:02.147Z,100160.34
2019-01-12T18:54:06.142Z,100159.86
2019-01-12T18:57:10.002Z,100166.87
2019-01-12T19:00:26.263Z,100156.73
2019-01-12T19:03:30.136Z,100157.28
2019-01-12T19:06:34.028Z,100153.33
2019-01-12T19:09:38.395Z,100149.32
2019-01-12T19:12:42.545Z,100146.09
2019-01-12T19:15:46.421Z,100134.98
2019-01-12T19:18:50.321Z,100138.04
2019-01-12T19:21:54.199Z,100140.16
2019-01-12T19:24:58.088Z,100137.92
2019-01-12T19:28:01.986Z,100134.72
2019-01-12T19:31:06.069Z,100150.39
2019-01-12T19:34:10.034Z,100141.48
2019-01-12T19:37:14.025Z,100143.30
2019-01-12T19:40:23.150Z,100142.13
2019-01-12T19:43:27.428Z,100151.59
2019-01-12T19:46:31.343Z,100149.98
2019-01-12T19:49:35.201Z,100149.49
2019-01-12T19:52:39.158Z,100144.78
2019-01-12T19:55:42.951Z,100140.41
2019-01-12T19:58:46.780Z,100133.48
2019-01-12T20:01:50.643Z,100139.24
2019-01-12T20:04:55.188Z,100141.83
2019-01-12T20:07:59.568Z,100140.11
2019-01-12T20:11:03.459Z,100146.84
2019-01-12T20:14:07.585Z,100146.36
2019-01-12T20:17:11.456Z,100147.17
2019-01-12T20:20:15.600Z,100154.09
2019-01-12T20:23:19.391Z,100150.53
2019-01-12T20:26:23.208Z,100151.63
2019-01-12T20:29:27.229Z,100148.09
2019-01-12T20:33:10.049Z,100149.55
2019-01-12T20:36:53.628Z,100143.36
2019-01-12T20:40:13.363Z,100153.77
2019-01-12T20:43:50.058Z,100156.70
2019-01-12T20:47:36.845Z,100156.08
2019-01-12T20:51:20.507Z,100154.92
2019-01-12T20:54:38.985Z,100155.98
2019-01-12T20:58:01.023Z,100148.98
2019-01-12T21:01:30.641Z,100151.27
2019-01-12T21:05:04.729Z,100167.00
2019-01-12T21:08:14.704Z,100162.05
2019-01-12T21:12:07.854Z,100161.39
2019-01-12T21:15:19.873Z,100161.05
2019-01-12T21:18:23.727Z,100162.30
2019-01-12T21:21:27.798Z,100159.03
2019-01-12T21:24:31.681Z,100168.73
2019-01-12T21:27:35.588Z,100159.36
2019-01-12T21:30:39.475Z,100161.11
2019-01-12T21:33:43.365Z,100155.08
2019-01-12T21:36:47.230Z,100152.09
2019-01-12T21:39:51.121Z,100151.59
2019-01-12T21:42:55.023Z,100151.54
2019-01-12T21:45:58.916Z,100148.42
2019-01-12T21:49:02.899Z,100146.20
2019-01-12T21:52:06.881Z,100154.43
2019-01-12T21:55:10.942Z,100149.58
2019-01-12T21:58:14.767Z,100139.98
2019-01-12T22:01:19.199Z,100132.44
2019-01-12T22:04:23.158Z,100130.55
2019-01-12T22:07:27.178Z,100128.73
2019-01-12T22:10:31.128Z,100131.26
2019-01-12T22:13:35.023Z,100134.23
2019-01-12T22:16:38.911Z,100129.47
2019-01-12T22:19:42.802Z,100128.47
2019-01-12T22:22:46.702Z,100135.78
2019-01-12T22:25:50.494Z,100124.94
2019-01-12T22:28:54.522Z,100126.55
2019-01-12T22:31:58.374Z,100138.27
2019-01-12T22:35:02.286Z,100136.86
2019-01-12T22:38:06.235Z,100120.11
2019-01-12T22:41:10.297Z,100132.34
2019-01-12T22:44:14.202Z,100119.69
2019-01-12T22:47:18.058Z,100124.53
2019-01-12T22:50:22.030Z,100113.90
2019-01-12T22:53:26.001Z,100122.25
2019-01-12T22:56:29.881Z,100118.58
2019-01-12T22:59:33.761Z,100114.13
2019-01-12T23:02:37.623Z,100118.50
2019-01-12T23:05:41.587Z,100116.27
2019-01-12T23:08:45.492Z,100125.50
2019-01-12T23:11:49.423Z,100128.06
2019-01-12T23:14:53.416Z,100122.70
2019-01-12T23:17:57.439Z,100121.38
2019-01-12T23:21:01.302Z,100129.38
2019-01-12T23:24:06.011Z,100134.53
2019-01-12T23:27:10.019Z,100135.45
2019-01-12T23:30:14.286Z,100139.15
2019-01-12T23:33:18.257Z,100141.13
2019-01-12T23:36:22.328Z,100140.02
2019-01-12T23:39:26.272Z,100153.27
2019-01-12T23:42:30.230Z,100148.86
2019-01-12T23:45:34.132Z,100151.25
2019-01-12T23:48:38.093Z,100163.02
2019-01-12T23:51:42.064Z,100152.05
2019-01-12T23:54:45.931Z,100144.06
2019-01-12T23:57:49.908Z,100141.52
